createdAt,value
2019-05-12T00:01:10.421Z,11.27
2019-05-12T00:03:41.852Z,7.50
2019-05-12T00:06:12.181Z,6.43
2019-05-12T00:08:42.547Z,5.90
2019-05-12T00:11:12.872Z,6.60
2019-05-12T00:13:43.264Z,6.80
2019-05-12T00:16:13.581Z,12.17
2019-05-12T00:18:43.948Z,10.73
2019-05-12T00:21:14.345Z,8.33
2019-05-12T00:24:02.741Z,10.77
2019-05-12T00:26:33.173Z,12.87
2019-05-12T00:29:03.550Z,7.83
2019-05-12T00:31:33.897Z,6.83
2019-05-12T00:34:04.346Z,8.80
2019-05-12T00:36:34.692Z,6.40
2019-05-12T00:39:08.668Z,7.70
2019-05-12T00:41:39.496Z,12.53
2019-05-12T00:44:09.917Z,6.83
2019-05-12T00:46:40.462Z,6.67
2019-05-12T00:49:10.816Z,7.13
2019-05-12T00:51:41.442Z,10.43
2019-05-12T00:54:11.820Z,6.93
2019-05-12T00:56:42.177Z,8.77
2019-05-12T00:59:12.506Z,11.03
2019-05-12T01:01:42.870Z,9.93
2019-05-12T01:04:13.252Z,9.07
2019-05-12T01:06:43.581Z,8.43
2019-05-12T01:09:13.937Z,7.30
2019-05-12T01:11:44.346Z,8.77
2019-05-12T01:14:14.884Z,10.30
2019-05-12T01:16:45.328Z,7.30
2019-05-12T01:19:18.345Z,12.50
2019-05-12T01:21:48.159Z,10.10
2019-05-12T01:24:18.900Z,6.57
2019-05-12T01:26:49.379Z,8.53
2019-05-12T01:29:19.713Z,9.80
2019-05-12T01:31:58.521Z,9.00
2019-05-12T01:34:28.500Z,6.63
2019-05-12T01:37:18.448Z,10.33
2019-05-12T01:39:49.212Z,8.43
2019-05-12T01:42:19.611Z,9.83
2019-05-12T01:44:49.964Z,8.70
2019-05-12T01:47:20.298Z,9.17
2019-05-12T01:49:50.636Z,9.40
2019-05-12T01:52:21.071Z,13.33
2019-05-12T01:54:51.586Z,10.23
2019-05-12T01:57:22.055Z,12.23
2019-05-12T01:59:52.386Z,12.43
2019-05-12T02:02:22.928Z,7.93
2019-05-12T02:05:08.537Z,8.20
2019-05-12T02:07:48.041Z,10.37
2019-05-12T02:10:19.776Z,9.43
2019-05-12T02:12:50.113Z,10.67
2019-05-12T02:15:21.066Z,10.50
2019-05-12T02:17:51.517Z,9.10
2019-05-12T02:20:22.241Z,8.50
2019-05-12T02:22:52.830Z,9.67
2019-05-12T02:25:23.290Z,11.73
2019-05-12T02:27:53.698Z,13.33
2019-05-12T02:30:24.128Z,10.40
2019-05-12T02:32:58.795Z,10.40
2019-05-12T02:35:26.631Z,13.60
2019-05-12T02:37:58.806Z,12.10
2019-05-12T02:40:29.205Z,12.90
2019-05-12T02:42:59.544Z,11.57
2019-05-12T02:45:29.934Z,9.67
2019-05-12T02:48:00.470Z,13.20
2019-05-12T02:50:36.716Z,11.27
2019-05-12T02:53:08.157Z,14.90
2019-05-12T02:55:39.484Z,12.83
2019-05-12T02:58:14.949Z,13.53
2019-05-12T03:00:45.923Z,10.53
2019-05-12T03:03:19.553Z,12.27
2019-05-12T03:05:54.669Z,9.73
2019-05-12T03:08:25.812Z,10.23
2019-05-12T03:10:57.107Z,11.90
2019-05-12T03:13:27.551Z,10.47
2019-05-12T03:15:59.158Z,12.73
2019-05-12T03:18:29.698Z,9.43
2019-05-12T03:21:00.001Z,9.93
2019-05-12T03:23:30.452Z,10.80
2019-05-12T03:26:00.927Z,7.37
2019-05-12T03:28:31.425Z,8.57
2019-05-12T03:31:06.853Z,10.00
2019-05-12T03:33:42.040Z,6.53
2019-05-12T03:36:09.254Z,6.10
2019-05-12T03:38:38.490Z,10.60
2019-05-12T03:41:08.875Z,8.37
2019-05-12T03:43:39.649Z,9.30
2019-05-12T03:46:09.996Z,9.30
2019-05-12T03:48:40.955Z,9.80
2019-05-12T03:51:11.301Z,8.60
2019-05-12T03:53:45.137Z,11.17
2019-05-12T03:56:15.101Z,9.03
2019-05-12T03:58:45.748Z,9.43
2019-05-12T04:01:16.270Z,9.50
2019-05-12T04:03:46.655Z,8.77
2019-05-12T04:06:17.028Z,13.83
2019-05-12T04:08:47.404Z,8.77
2019-05-12T04:11:17.775Z,10.97
2019-05-12T04:13:48.240Z,9.07
2019-05-12T04:16:18.579Z,13.83
2019-05-12T04:18:50.118Z,10.07
2019-05-12T04:21:20.428Z,9.07
2019-05-12T04:23:50.835Z,13.53
2019-05-12T04:26:21.136Z,7.30
2019-05-12T04:28:54.643Z,11.13
2019-05-12T04:31:24.909Z,11.40
2019-05-12T04:33:55.514Z,8.57
2019-05-12T04:36:25.884Z,10.97
2019-05-12T04:38:56.226Z,9.73
2019-05-12T04:41:26.575Z,8.63
2019-05-12T04:43:57.209Z,8.83
2019-05-12T04:46:27.528Z,8.83
2019-05-12T04:48:57.994Z,9.53
2019-05-12T04:51:28.438Z,6.67
2019-05-12T04:53:58.846Z,13.50
2019-05-12T04:56:29.230Z,13.70
2019-05-12T04:58:59.542Z,8.23
2019-05-12T05:01:29.965Z,10.43
2019-05-12T05:04:00.356Z,7.57
2019-05-12T05:06:30.807Z,6.50
2019-05-12T05:09:01.142Z,8.60
2019-05-12T05:11:34.321Z,10.70
2019-05-12T05:14:04.356Z,9.90
2019-05-12T05:16:35.185Z,7.30
2019-05-12T05:19:05.533Z,8.70
2019-05-12T05:21:36.004Z,10.60
2019-05-12T05:24:06.387Z,9.73
2019-05-12T05:26:37.537Z,10.13
2019-05-12T05:29:08.008Z,9.83
2019-05-12T05:31:38.426Z,5.80
2019-05-12T05:34:08.729Z,9.90
2019-05-12T05:36:39.578Z,7.30
2019-05-12T05:39:09.974Z,8.70
2019-05-12T05:41:48.808Z,7.93
2019-05-12T05:44:13.871Z,9.10
2019-05-12T05:46:49.811Z,8.10
2019-05-12T05:49:16.369Z,9.00
2019-05-12T05:51:54.192Z,5.77
2019-05-12T05:54:24.708Z,9.43
2019-05-12T05:57:01.237Z,12.17
2019-05-12T05:59:31.447Z,11.00
2019-05-12T06:01:56.409Z,7.87
2019-05-12T06:04:26.765Z,6.53
2019-05-12T06:06:57.091Z,9.27
2019-05-12T06:09:27.453Z,6.40
2019-05-12T06:11:58.983Z,6.30
2019-05-12T06:14:29.794Z,7.03
2019-05-12T06:17:00.182Z,6.27
2019-05-12T06:19:30.586Z,8.70
2019-05-12T06:22:01.002Z,9.33
2019-05-12T06:24:33.401Z,5.97
2019-05-12T06:27:14.334Z,6.40
2019-05-12T06:29:35.297Z,4.53
2019-05-12T06:32:10.635Z,5.30
2019-05-12T06:34:38.361Z,5.43
2019-05-12T06:37:12.006Z,6.63
2019-05-12T06:39:43.595Z,5.17
2019-05-12T06:42:16.813Z,6.10
2019-05-12T06:44:48.987Z,6.37
2019-05-12T06:47:17.969Z,6.07
2019-05-12T06:49:53.896Z,7.20
2019-05-12T06:52:20.431Z,5.93
2019-05-12T06:54:54.690Z,5.73
2019-05-12T06:57:28.332Z,4.47
2019-05-12T06:59:55.814Z,5.27
2019-05-12T07:02:30.192Z,3.63
2019-05-12T07:04:59.599Z,7.70
2019-05-12T07:07:35.852Z,6.73
2019-05-12T07:10:11.710Z,3.73
2019-05-12T07:12:43.516Z,5.93
2019-05-12T07:15:06.919Z,4.30
2019-05-12T07:17:44.150Z,8.17
2019-05-12T07:20:14.951Z,6.13
2019-05-12T07:22:48.467Z,3.87
2019-05-12T07:25:17.333Z,6.43
2019-05-12T07:27:55.014Z,6.07
2019-05-12T07:30:31.541Z,3.43
2019-05-12T07:33:01.450Z,6.60
2019-05-12T07:35:34.110Z,6.37
2019-05-12T07:38:05.574Z,4.97
2019-05-12T07:40:37.913Z,4.23
2019-05-12T07:43:15.366Z,3.67
2019-05-12T07:45:45.061Z,4.03
2019-05-12T07:48:15.421Z,6.40
2019-05-12T07:50:50.266Z,3.67
2019-05-12T07:53:17.653Z,4.30
2019-05-12T07:55:49.494Z,3.70
2019-05-12T07:58:23.981Z,6.47
2019-05-12T08:01:02.342Z,3.20
2019-05-12T08:03:26.806Z,3.50
2019-05-12T08:06:01.575Z,5.17
2019-05-12T08:08:29.195Z,3.30
2019-05-12T08:10:59.494Z,4.20
2019-05-12T08:13:31.053Z,3.37
2019-05-12T08:16:03.687Z,4.50
2019-05-12T08:18:41.005Z,4.23
2019-05-12T08:21:08.137Z,3.53
2019-05-12T08:23:40.454Z,4.63
2019-05-12T08:26:16.139Z,4.83
2019-05-12T08:28:44.236Z,4.47
2019-05-12T08:31:14.659Z,2.93
2019-05-12T08:33:44.985Z,3.87
2019-05-12T08:36:16.516Z,3.07
2019-05-12T08:38:47.245Z,2.87
2019-05-12T08:41:17.438Z,3.10
2019-05-12T08:45:44.363Z,2.17
2019-05-12T08:48:21.266Z,6.53
2019-05-12T08:50:47.831Z,3.20
2019-05-12T08:53:21.325Z,4.20
2019-05-12T08:55:51.089Z,5.93
2019-05-12T08:58:31.346Z,3.50
2019-05-12T09:00:54.886Z,2.10
2019-05-12T09:03:30.118Z,5.60
2019-05-12T09:05:57.385Z,3.07
2019-05-12T09:08:28.401Z,5.13
2019-05-12T09:10:58.699Z,3.53
2019-05-12T09:13:29.007Z,4.67
2019-05-12T09:15:59.354Z,3.77
2019-05-12T09:18:35.044Z,2.30
2019-05-12T09:21:03.748Z,4.57
2019-05-12T09:23:41.049Z,3.47
2019-05-12T09:26:06.009Z,7.60
2019-05-12T09:28:46.467Z,4.57
2019-05-12T09:31:08.576Z,4.60
2019-05-12T09:33:38.968Z,2.07
2019-05-12T09:36:11.369Z,4.70
2019-05-12T09:38:41.466Z,4.20
2019-05-12T09:41:13.766Z,4.97
2019-05-12T09:43:47.735Z,2.17
2019-05-12T09:46:16.343Z,3.03
2019-05-12T09:48:52.107Z,3.83
2019-05-12T09:51:19.341Z,3.10
2019-05-12T09:53:52.380Z,1.90
2019-05-12T09:56:23.843Z,3.03
2019-05-12T09:59:01.588Z,3.87
2019-05-12T10:01:29.169Z,3.03
2019-05-12T10:03:59.585Z,4.20
2019-05-12T10:06:30.669Z,1.53
2019-05-12T10:09:03.323Z,2.03
2019-05-12T10:11:34.792Z,3.10
2019-05-12T10:14:10.596Z,3.10
2019-05-12T10:16:39.482Z,3.10
2019-05-12T10:19:14.831Z,2.53
2019-05-12T10:21:49.239Z,2.43
2019-05-12T10:24:19.097Z,2.83
2019-05-12T10:26:50.718Z,3.40
2019-05-12T10:29:21.203Z,2.03
2019-05-12T10:31:53.650Z,2.73
2019-05-12T10:34:24.246Z,2.20
2019-05-12T10:36:54.617Z,2.53
2019-05-12T10:39:24.924Z,3.13
2019-05-12T10:41:55.278Z,2.37
2019-05-12T10:44:30.053Z,2.87
2019-05-12T10:46:59.653Z,8.53
2019-05-12T10:49:30.029Z,2.47
2019-05-12T10:52:00.406Z,3.40
2019-05-12T10:54:31.734Z,2.60
2019-05-12T10:57:05.060Z,3.00
2019-05-12T10:59:38.696Z,2.40
2019-05-12T11:02:07.677Z,4.13
2019-05-12T11:04:41.108Z,3.33
2019-05-12T11:07:10.273Z,1.97
2019-05-12T11:09:43.876Z,3.73
2019-05-12T11:12:19.071Z,4.93
2019-05-12T11:14:46.377Z,1.67
2019-05-12T11:17:16.750Z,3.03
2019-05-12T11:19:51.362Z,3.20
2019-05-12T11:22:22.804Z,2.80
2019-05-12T11:24:55.695Z,4.40
2019-05-12T11:27:25.567Z,2.50
2019-05-12T11:29:55.966Z,2.10
2019-05-12T11:32:28.947Z,1.70
2019-05-12T11:34:58.763Z,2.93
2019-05-12T11:37:29.214Z,2.37
2019-05-12T11:39:59.566Z,2.43
2019-05-12T11:42:29.903Z,6.10
2019-05-12T11:45:00.373Z,3.43
2019-05-12T11:47:30.748Z,3.90
2019-05-12T11:50:05.191Z,3.50
2019-05-12T11:52:35.542Z,3.20
2019-05-12T11:55:06.430Z,2.17
2019-05-12T11:57:38.039Z,2.83
2019-05-12T12:00:10.318Z,2.00
2019-05-12T12:02:40.941Z,1.80
2019-05-12T12:05:13.757Z,5.20
2019-05-12T12:07:51.235Z,2.97
2019-05-12T12:10:16.914Z,4.60
2019-05-12T12:12:49.230Z,3.97
2019-05-12T12:15:25.176Z,3.87
2019-05-12T12:17:54.030Z,5.07
2019-05-12T12:20:24.416Z,2.40
2019-05-12T12:22:54.787Z,4.57
2019-05-12T12:25:29.686Z,2.23
2019-05-12T12:28:00.112Z,2.77
2019-05-12T12:30:30.433Z,2.63
2019-05-12T12:33:00.882Z,2.87
2019-05-12T12:35:34.490Z,1.90
2019-05-12T12:38:14.388Z,2.00
2019-05-12T12:40:53.563Z,3.40
2019-05-12T12:43:28.689Z,2.97
2019-05-12T12:46:10.481Z,3.70
2019-05-12T12:48:48.461Z,2.00
2019-05-12T12:51:23.523Z,2.60
2019-05-12T12:53:57.627Z,2.30
2019-05-12T12:56:34.211Z,6.03
2019-05-12T12:59:14.555Z,2.33
2019-05-12T13:01:46.331Z,2.70
2019-05-12T13:04:28.800Z,2.50
2019-05-12T13:06:59.879Z,3.83
2019-05-12T13:09:33.434Z,2.90
2019-05-12T13:12:14.418Z,1.87
2019-05-12T13:14:40.958Z,3.57
2019-05-12T13:17:14.141Z,2.57
2019-05-12T13:19:53.598Z,2.07
2019-05-12T13:22:21.050Z,2.30
2019-05-12T13:24:58.177Z,1.90
2019-05-12T13:27:29.268Z,2.40
2019-05-12T13:30:02.289Z,1.20
2019-05-12T13:32:37.900Z,2.30
2019-05-12T13:35:20.007Z,1.47
2019-05-12T13:37:56.515Z,2.73
2019-05-12T13:40:29.914Z,1.60
2019-05-12T13:42:59.965Z,3.63
2019-05-12T13:45:33.637Z,1.70
2019-05-12T13:48:09.553Z,1.93
2019-05-12T13:50:39.517Z,1.53
2019-05-12T13:53:13.834Z,2.03
2019-05-12T13:55:49.448Z,2.43
2019-05-12T13:58:21.135Z,4.10
2019-05-12T14:01:10.486Z,2.20
2019-05-12T14:03:24.267Z,1.70
2019-05-12T14:05:56.478Z,2.67
2019-05-12T14:08:30.082Z,2.67
2019-05-12T14:11:04.780Z,1.60
2019-05-12T14:13:35.136Z,2.17
2019-05-12T14:16:06.645Z,1.23
2019-05-12T14:18:38.103Z,2.60
2019-05-12T14:21:08.577Z,2.53
2019-05-12T14:23:40.733Z,1.47
2019-05-12T14:26:13.472Z,1.07
2019-05-12T14:28:49.467Z,1.37
2019-05-12T14:31:26.396Z,1.23
2019-05-12T14:33:49.711Z,2.17
2019-05-12T14:36:22.046Z,3.53
2019-05-12T14:38:54.181Z,2.73
2019-05-12T14:41:27.049Z,1.83
2019-05-12T14:44:01.645Z,1.20
2019-05-12T14:46:30.863Z,1.40
2019-05-12T14:49:03.735Z,7.90
2019-05-12T14:51:34.130Z,2.17
2019-05-12T14:54:06.915Z,1.67
2019-05-12T14:56:44.794Z,1.67
2019-05-12T14:59:14.444Z,1.70
2019-05-12T15:01:57.355Z,1.90
2019-05-12T15:04:19.357Z,0.90
2019-05-12T15:06:50.580Z,1.17
2019-05-12T15:09:22.426Z,1.63
2019-05-12T15:11:53.074Z,2.20
2019-05-12T15:14:32.550Z,2.60
2019-05-12T15:17:00.200Z,1.77
2019-05-12T15:19:36.847Z,1.97
2019-05-12T15:22:14.534Z,2.10
2019-05-12T15:24:49.320Z,2.70
2019-05-12T15:27:41.995Z,2.57
2019-05-12T15:30:19.127Z,1.27
2019-05-12T15:32:40.753Z,2.33
2019-05-12T15:35:18.402Z,1.20
2019-05-12T15:37:52.889Z,2.90
2019-05-12T15:40:48.335Z,1.70
2019-05-12T15:43:28.756Z,3.07
2019-05-12T15:46:01.243Z,2.40
2019-05-12T15:48:34.219Z,1.77
2019-05-12T15:51:08.701Z,2.47
2019-05-12T15:53:45.562Z,2.63
2019-05-12T15:56:23.246Z,4.83
2019-05-12T15:58:55.686Z,2.10
2019-05-12T16:01:24.804Z,2.93
2019-05-12T16:03:57.655Z,1.67
2019-05-12T16:06:31.388Z,2.43
2019-05-12T16:09:06.457Z,2.37
2019-05-12T16:11:40.329Z,1.63
2019-05-12T16:14:14.919Z,2.63
2019-05-12T16:16:47.067Z,1.60
2019-05-12T16:19:19.312Z,2.10
2019-05-12T16:21:51.303Z,2.57
2019-05-12T16:24:27.137Z,1.43
2019-05-12T16:26:57.050Z,2.93
2019-05-12T16:29:29.999Z,4.17
2019-05-12T16:32:04.483Z,1.97
2019-05-12T16:34:44.939Z,1.83
2019-05-12T16:37:13.920Z,2.43
2019-05-12T16:39:47.238Z,2.80
2019-05-12T16:42:17.793Z,2.53
2019-05-12T16:44:56.252Z,1.97
2019-05-12T16:47:29.208Z,3.03
2019-05-12T16:50:08.467Z,2.10
2019-05-12T16:52:40.667Z,3.63
2019-05-12T16:55:10.853Z,2.77
2019-05-12T16:57:51.219Z,3.63
2019-05-12T17:00:20.969Z,1.97
2019-05-12T17:02:57.633Z,3.03
2019-05-12T17:05:27.737Z,1.70
2019-05-12T17:08:00.055Z,1.50
2019-05-12T17:10:33.654Z,1.83
2019-05-12T17:13:07.530Z,3.90
2019-05-12T17:15:38.424Z,2.23
2019-05-12T17:18:13.637Z,1.83
2019-05-12T17:20:49.857Z,2.87
2019-05-12T17:23:18.086Z,1.47
2019-05-12T17:25:50.407Z,2.27
2019-05-12T17:28:24.141Z,4.20
2019-05-12T17:30:56.167Z,2.30
2019-05-12T17:33:30.314Z,3.03
2019-05-12T17:36:03.024Z,2.20
2019-05-12T17:38:34.559Z,2.83
2019-05-12T17:41:05.078Z,1.70
2019-05-12T17:43:35.375Z,2.50
2019-05-12T17:46:07.026Z,2.87
2019-05-12T17:48:42.482Z,2.80
2019-05-12T17:51:09.310Z,1.77
2019-05-12T17:53:39.786Z,2.40
2019-05-12T17:56:10.098Z,3.23
2019-05-12T17:58:45.257Z,2.57
2019-05-12T18:01:14.365Z,2.23
2019-05-12T18:03:50.558Z,3.10
2019-05-12T18:06:20.532Z,3.30
2019-05-12T18:08:50.071Z,2.77
2019-05-12T18:11:23.705Z,1.67
2019-05-12T18:14:01.491Z,5.37
2019-05-12T18:16:26.922Z,2.93
2019-05-12T18:18:57.216Z,2.83
2019-05-12T18:21:31.019Z,2.13
2019-05-12T18:24:00.512Z,1.93
2019-05-12T18:26:33.835Z,1.70
2019-05-12T18:29:04.278Z,2.67
2019-05-12T18:31:34.856Z,1.60
2019-05-12T18:34:05.468Z,1.90
2019-05-12T18:36:35.903Z,2.17
2019-05-12T18:39:11.664Z,2.73
2019-05-12T18:41:43.720Z,1.77
2019-05-12T18:44:18.222Z,3.20
2019-05-12T18:46:46.700Z,1.93
2019-05-12T18:49:18.315Z,2.10
2019-05-12T18:51:54.469Z,3.00
2019-05-12T18:54:20.806Z,3.17
2019-05-12T18:56:52.376Z,1.90
2019-05-12T18:59:23.186Z,2.87
2019-05-12T19:01:54.098Z,2.40
2019-05-12T19:04:24.474Z,2.73
2019-05-12T19:06:54.942Z,2.80
2019-05-12T19:09:25.281Z,2.63
2019-05-12T19:11:55.626Z,3.03
2019-05-12T19:14:35.366Z,3.97
2019-05-12T19:16:58.750Z,3.00
2019-05-12T19:19:29.954Z,3.10
2019-05-12T19:22:06.903Z,3.07
2019-05-12T19:24:36.286Z,2.17
2019-05-12T19:27:10.481Z,2.47
2019-05-12T19:29:48.192Z,3.50
2019-05-12T19:32:14.303Z,1.93
2019-05-12T19:34:46.336Z,2.33
2019-05-12T19:37:19.502Z,2.57
2019-05-12T19:39:48.033Z,4.13
2019-05-12T19:42:20.467Z,2.10
2019-05-12T19:44:50.352Z,2.00
2019-05-12T19:47:22.267Z,3.80
2019-05-12T19:49:53.599Z,2.13
2019-05-12T19:52:24.470Z,4.33
2019-05-12T19:54:54.946Z,2.33
2019-05-12T19:57:26.289Z,1.97
2019-05-12T19:59:56.838Z,3.33
2019-05-12T20:02:27.279Z,2.90
2019-05-12T20:04:57.634Z,3.20
2019-05-12T20:07:27.941Z,3.83
2019-05-12T20:10:00.553Z,2.50
2019-05-12T20:12:30.852Z,2.97
2019-05-12T20:15:03.799Z,2.57
2019-05-12T20:17:34.051Z,1.90
2019-05-12T20:20:04.904Z,3.93
2019-05-12T20:22:35.356Z,4.00
2019-05-12T20:25:05.965Z,3.33
2019-05-12T20:27:36.274Z,3.73
2019-05-12T20:30:16.897Z,2.60
2019-05-12T20:32:40.034Z,3.17
2019-05-12T20:35:10.333Z,5.80
2019-05-12T20:37:46.590Z,3.80
2019-05-12T20:40:14.167Z,2.77
2019-05-12T20:43:06.930Z,3.00
2019-05-12T20:45:25.133Z,5.57
2019-05-12T20:47:53.230Z,4.73
2019-05-12T20:50:32.784Z,2.60
2019-05-12T20:52:59.004Z,6.70
2019-05-12T20:55:29.986Z,1.70
2019-05-12T20:58:00.312Z,4.77
2019-05-12T21:00:30.721Z,6.60
2019-05-12T21:03:01.022Z,3.37
2019-05-12T21:05:34.307Z,2.20
2019-05-12T21:08:11.336Z,2.40
2019-05-12T21:10:36.301Z,2.57
2019-05-12T21:13:06.674Z,3.30
2019-05-12T21:15:42.390Z,1.97
2019-05-12T21:18:09.590Z,3.17
2019-05-12T21:20:41.142Z,2.00
2019-05-12T21:23:13.421Z,3.67
2019-05-12T21:25:51.946Z,3.13
2019-05-12T21:28:15.408Z,6.53
2019-05-12T21:30:48.063Z,2.53
2019-05-12T21:33:17.799Z,6.47
2019-05-12T21:35:48.138Z,3.33
2019-05-12T21:38:18.764Z,3.93
2019-05-12T21:40:50.408Z,3.90
2019-05-12T21:43:20.873Z,3.30
2019-05-12T21:45:53.143Z,1.80
2019-05-12T21:48:24.046Z,4.17
2019-05-12T21:50:55.648Z,3.17
2019-05-12T21:53:26.129Z,2.97
2019-05-12T21:56:04.128Z,2.10
2019-05-12T21:58:28.443Z,2.50
2019-05-12T22:01:05.129Z,2.33
2019-05-12T22:03:34.501Z,2.87
2019-05-12T22:06:15.283Z,1.80
2019-05-12T22:08:36.831Z,1.03
2019-05-12T22:11:11.487Z,4.73
2019-05-12T22:13:47.244Z,2.57
2019-05-12T22:16:14.033Z,2.37
2019-05-12T22:18:43.878Z,2.57
2019-05-12T22:21:14.414Z,2.67
2019-05-12T22:23:51.431Z,1.47
2019-05-12T22:26:16.731Z,2.23
2019-05-12T22:28:50.883Z,4.53
2019-05-12T22:31:19.049Z,4.07
2019-05-12T22:33:53.519Z,2.37
2019-05-12T22:36:26.871Z,4.83
2019-05-12T22:39:00.513Z,1.90
2019-05-12T22:41:30.229Z,3.43
2019-05-12T22:43:57.365Z,2.80
2019-05-12T22:46:31.307Z,2.37
2019-05-12T22:49:00.691Z,2.13
2019-05-12T22:51:31.010Z,3.00
2019-05-12T22:54:07.952Z,1.93
2019-05-12T22:56:34.310Z,2.57
2019-05-12T22:59:04.723Z,5.43
2019-05-12T23:01:41.529Z,2.50
2019-05-12T23:04:07.234Z,2.77
2019-05-12T23:06:42.236Z,2.53
2019-05-12T23:09:09.734Z,4.80
2019-05-12T23:11:40.184Z,2.80
2019-05-12T23:14:12.800Z,1.90
2019-05-12T23:16:44.309Z,2.93
2019-05-12T23:19:15.099Z,5.00
2019-05-12T23:21:49.238Z,2.60
2019-05-12T23:24:17.414Z,3.60
2019-05-12T23:26:48.172Z,3.97
2019-05-12T23:29:20.394Z,2.97
2019-05-12T23:31:50.517Z,3.40
2019-05-12T23:34:23.065Z,4.03
2019-05-12T23:36:56.762Z,4.27
2019-05-12T23:39:24.737Z,5.27
2019-05-12T23:41:55.056Z,4.00
2019-05-12T23:44:25.378Z,3.13
2019-05-12T23:46:55.687Z,5.47
2019-05-12T23:49:26.006Z,5.10
2019-05-12T23:51:56.376Z,2.60
2019-05-12T23:54:26.719Z,2.83
2019-05-12T23:56:57.065Z,1.97
2019-05-12T23:59:27.442Z,4.47
